sensor_id;sensor_type;location;lat;lon;timestamp;P1;durP1;ratioP1;P2;durP2;ratioP2
18879;SDS011;9572;52.378;13.404;2023-04-22T00:00:08;9.53;;;6.53;;
18879;SDS011;9572;52.378;13.404;2023-04-22T00:02:37;9.97;;;5.93;;
18879;SDS011;9572;52.378;13.404;2023-04-22T00:05:05;8.63;;;6.63;;
18879;SDS011;9572;52.378;13.404;2023-04-22T00:07:33;6.47;;;5.37;;
18879;SDS011;9572;52.378;13.404;2023-04-22T00:10:00;7.63;;;6.13;;
18879;SDS011;9572;52.378;13.404;2023-04-22T00:12:29;7.40;;;5.90;;
18879;SDS011;9572;52.378;13.404;2023-04-22T00:14:56;11.03;;;6.77;;
18879;SDS011;9572;52.378;13.404;2023-04-22T00:17:22;10.23;;;6.47;;
18879;SDS011;9572;52.378;13.404;2023-04-22T00:19:50;9.07;;;6.20;;
18879;SDS011;9572;52.378;13.404;2023-04-22T00:22:16;9.10;;;6.33;;
18879;SDS011;9572;52.378;13.404;2023-04-22T00:24:43;7.97;;;6.50;;
18879;SDS011;9572;52.378;13.404;2023-04-22T00:27:11;9.57;;;6.53;;
18879;SDS011;9572;52.378;13.404;2023-04-22T00:29:39;11.83;;;6.57;;
18879;SDS011;9572;52.378;13.404;2023-04-22T00:32:06;10.20;;;6.30;;
18879;SDS011;9572;52.378;13.404;2023-04-22T00:34:32;9.27;;;6.23;;
18879;SDS011;9572;52.378;13.404;2023-04-22T00:36:59;7.20;;;5.57;;
18879;SDS011;9572;52.378;13.404;2023-04-22T00:39:27;11.03;;;5.97;;
18879;SDS011;9572;52.378;13.404;2023-04-22T00:41:54;8.40;;;5.97;;
18879;SDS011;9572;52.378;13.404;2023-04-22T00:44:21;9.37;;;5.80;;
18879;SDS011;9572;52.378;13.404;2023-04-22T00:46:49;8.80;;;6.00;;
18879;SDS011;9572;52.378;13.404;2023-04-22T00:49:16;7.63;;;5.90;;
18879;SDS011;9572;52.378;13.404;2023-04-22T00:51:45;8.00;;;6.13;;
18879;SDS011;9572;52.378;13.404;2023-04-22T00:54:11;9.77;;;5.80;;
18879;SDS011;9572;52.378;13.404;2023-04-22T00:56:38;10.20;;;6.27;;
18879;SDS011;9572;52.378;13.404;2023-04-22T00:59:05;11.83;;;6.60;;
18879;SDS011;9572;52.378;13.404;2023-04-22T01:01:33;8.47;;;5.90;;
18879;SDS011;9572;52.378;13.404;2023-04-22T01:04:03;10.53;;;6.43;;
18879;SDS011;9572;52.378;13.404;2023-04-22T01:06:30;11.60;;;6.20;;
18879;SDS011;9572;52.378;13.404;2023-04-22T01:08:58;8.77;;;6.30;;
18879;SDS011;9572;52.378;13.404;2023-04-22T01:11:25;7.40;;;5.93;;
18879;SDS011;9572;52.378;13.404;2023-04-22T01:13:52;10.23;;;6.30;;
18879;SDS011;9572;52.378;13.404;2023-04-22T01:16:19;8.17;;;5.67;;
18879;SDS011;9572;52.378;13.404;2023-04-22T01:18:46;14.43;;;6.33;;
18879;SDS011;9572;52.378;13.404;2023-04-22T01:21:15;8.60;;;6.83;;
18879;SDS011;9572;52.378;13.404;2023-04-22T01:23:44;8.27;;;5.60;;
18879;SDS011;9572;52.378;13.404;2023-04-22T01:26:12;9.47;;;5.93;;
18879;SDS011;9572;52.378;13.404;2023-04-22T01:28:39;9.33;;;5.87;;
18879;SDS011;9572;52.378;13.404;2023-04-22T01:31:06;8.53;;;6.00;;
18879;SDS011;9572;52.378;13.404;2023-04-22T01:33:33;9.77;;;5.63;;
18879;SDS011;9572;52.378;13.404;2023-04-22T01:36:00;12.23;;;6.30;;
18879;SDS011;9572;52.378;13.404;2023-04-22T01:38:27;9.30;;;6.53;;
18879;SDS011;9572;52.378;13.404;2023-04-22T01:40:58;10.77;;;6.80;;
18879;SDS011;9572;52.378;13.404;2023-04-22T01:43:26;9.10;;;6.60;;
18879;SDS011;9572;52.378;13.404;2023-04-22T01:45:54;11.13;;;6.53;;
18879;SDS011;9572;52.378;13.404;2023-04-22T01:48:21;11.00;;;7.17;;
18879;SDS011;9572;52.378;13.404;2023-04-22T01:50:49;9.93;;;6.47;;
18879;SDS011;9572;52.378;13.404;2023-04-22T01:53:16;8.73;;;6.30;;
18879;SDS011;9572;52.378;13.404;2023-04-22T01:55:43;10.13;;;6.63;;
18879;SDS011;9572;52.378;13.404;2023-04-22T01:58:11;9.63;;;6.47;;
18879;SDS011;9572;52.378;13.404;2023-04-22T02:00:38;10.20;;;6.57;;
18879;SDS011;9572;52.378;13.404;2023-04-22T02:03:05;13.57;;;6.70;;
18879;SDS011;9572;52.378;13.404;2023-04-22T02:05:32;10.03;;;6.73;;
18879;SDS011;9572;52.378;13.404;2023-04-22T02:07:59;9.07;;;6.57;;
18879;SDS011;9572;52.378;13.404;2023-04-22T02:10:26;8.30;;;6.30;;
18879;SDS011;9572;52.378;13.404;2023-04-22T02:12:53;10.37;;;6.87;;
18879;SDS011;9572;52.378;13.404;2023-04-22T02:15:21;9.33;;;6.67;;
18879;SDS011;9572;52.378;13.404;2023-04-22T02:17:48;13.57;;;6.53;;
18879;SDS011;9572;52.378;13.404;2023-04-22T02:20:15;9.20;;;6.17;;
18879;SDS011;9572;52.378;13.404;2023-04-22T02:22:42;8.40;;;6.00;;
18879;SDS011;9572;52.378;13.404;2023-04-22T02:25:12;8.00;;;6.13;;
18879;SDS011;9572;52.378;13.404;2023-04-22T02:27:39;8.47;;;6.37;;
18879;SDS011;9572;52.378;13.404;2023-04-22T02:30:06;8.43;;;6.30;;
18879;SDS011;9572;52.378;13.404;2023-04-22T02:32:36;11.87;;;6.87;;
18879;SDS011;9572;52.378;13.404;2023-04-22T02:35:04;10.33;;;6.97;;
18879;SDS011;9572;52.378;13.404;2023-04-22T02:37:32;11.90;;;7.37;;
18879;SDS011;9572;52.378;13.404;2023-04-22T02:39:59;9.90;;;6.47;;
18879;SDS011;9572;52.378;13.404;2023-04-22T02:42:26;8.67;;;6.70;;
18879;SDS011;9572;52.378;13.404;2023-04-22T02:44:53;9.20;;;6.50;;
18879;SDS011;9572;52.378;13.404;2023-04-22T02:47:20;10.10;;;6.63;;
18879;SDS011;9572;52.378;13.404;2023-04-22T02:49:48;11.80;;;6.60;;
18879;SDS011;9572;52.378;13.404;2023-04-22T02:52:15;11.60;;;7.30;;
18879;SDS011;9572;52.378;13.404;2023-04-22T02:54:42;10.83;;;7.03;;
18879;SDS011;9572;52.378;13.404;2023-04-22T02:57:09;9.30;;;6.87;;
18879;SDS011;9572;52.378;13.404;2023-04-22T02:59:36;11.40;;;6.57;;
18879;SDS011;9572;52.378;13.404;2023-04-22T03:02:03;8.63;;;6.00;;
18879;SDS011;9572;52.378;13.404;2023-04-22T03:04:30;8.57;;;6.83;;
18879;SDS011;9572;52.378;13.404;2023-04-22T03:06:58;9.60;;;6.33;;
18879;SDS011;9572;52.378;13.404;2023-04-22T03:09:25;12.83;;;6.63;;
18879;SDS011;9572;52.378;13.404;2023-04-22T03:11:52;9.10;;;6.47;;
18879;SDS011;9572;52.378;13.404;2023-04-22T03:14:19;10.97;;;6.77;;
18879;SDS011;9572;52.378;13.404;2023-04-22T03:16:46;13.87;;;7.10;;
18879;SDS011;9572;52.378;13.404;2023-04-22T03:19:13;12.23;;;7.53;;
18879;SDS011;9572;52.378;13.404;2023-04-22T03:21:40;8.40;;;6.70;;
18879;SDS011;9572;52.378;13.404;2023-04-22T03:24:09;11.30;;;7.30;;
18879;SDS011;9572;52.378;13.404;2023-04-22T03:26:35;10.13;;;7.57;;
18879;SDS011;9572;52.378;13.404;2023-04-22T03:29:02;11.03;;;7.57;;
18879;SDS011;9572;52.378;13.404;2023-04-22T03:31:29;11.70;;;7.23;;
18879;SDS011;9572;52.378;13.404;2023-04-22T03:33:56;11.63;;;7.50;;
18879;SDS011;9572;52.378;13.404;2023-04-22T03:36:23;13.83;;;7.60;;
18879;SDS011;9572;52.378;13.404;2023-04-22T03:38:51;12.17;;;7.73;;
18879;SDS011;9572;52.378;13.404;2023-04-22T03:41:19;11.50;;;7.33;;
18879;SDS011;9572;52.378;13.404;2023-04-22T03:43:47;9.60;;;6.93;;
18879;SDS011;9572;52.378;13.404;2023-04-22T03:46:14;11.23;;;7.23;;
18879;SDS011;9572;52.378;13.404;2023-04-22T03:48:42;11.83;;;7.40;;
18879;SDS011;9572;52.378;13.404;2023-04-22T03:51:09;11.13;;;7.67;;
18879;SDS011;9572;52.378;13.404;2023-04-22T03:53:36;12.00;;;7.93;;
18879;SDS011;9572;52.378;13.404;2023-04-22T03:56:03;10.27;;;7.47;;
18879;SDS011;9572;52.378;13.404;2023-04-22T03:58:31;12.47;;;8.17;;
18879;SDS011;9572;52.378;13.404;2023-04-22T04:00:58;12.70;;;7.50;;
18879;SDS011;9572;52.378;13.404;2023-04-22T04:03:25;11.73;;;7.43;;
18879;SDS011;9572;52.378;13.404;2023-04-22T04:05:52;12.13;;;7.97;;
18879;SDS011;9572;52.378;13.404;2023-04-22T04:08:19;12.83;;;7.63;;
18879;SDS011;9572;52.378;13.404;2023-04-22T04:10:46;11.93;;;7.07;;
18879;SDS011;9572;52.378;13.404;2023-04-22T04:13:13;15.03;;;7.50;;
18879;SDS011;9572;52.378;13.404;2023-04-22T04:15:41;17.10;;;8.27;;
18879;SDS011;9572;52.378;13.404;2023-04-22T04:18:08;13.57;;;8.13;;
18879;SDS011;9572;52.378;13.404;2023-04-22T04:20:35;13.70;;;7.33;;
18879;SDS011;9572;52.378;13.404;2023-04-22T04:23:02;10.23;;;7.20;;
18879;SDS011;9572;52.378;13.404;2023-04-22T04:25:29;15.90;;;7.67;;
18879;SDS011;9572;52.378;13.404;2023-04-22T04:28:01;18.67;;;8.40;;
18879;SDS011;9572;52.378;13.404;2023-04-22T04:30:29;14.03;;;7.47;;
18879;SDS011;9572;52.378;13.404;2023-04-22T04:32:58;11.53;;;7.97;;
18879;SDS011;9572;52.378;13.404;2023-04-22T04:35:30;14.17;;;7.97;;
18879;SDS011;9572;52.378;13.404;2023-04-22T04:37:58;16.63;;;7.97;;
18879;SDS011;9572;52.378;13.404;2023-04-22T04:40:25;13.47;;;7.87;;
18879;SDS011;9572;52.378;13.404;2023-04-22T04:42:53;13.67;;;8.13;;
18879;SDS011;9572;52.378;13.404;2023-04-22T04:45:21;11.47;;;7.47;;
18879;SDS011;9572;52.378;13.404;2023-04-22T04:47:48;11.47;;;7.50;;
18879;SDS011;9572;52.378;13.404;2023-04-22T04:50:18;16.47;;;7.70;;
18879;SDS011;9572;52.378;13.404;2023-04-22T04:52:45;11.37;;;7.60;;
18879;SDS011;9572;52.378;13.404;2023-04-22T04:55:13;13.63;;;7.50;;
18879;SDS011;9572;52.378;13.404;2023-04-22T04:57:40;15.80;;;7.90;;
18879;SDS011;9572;52.378;13.404;2023-04-22T05:00:08;15.87;;;8.10;;
18879;SDS011;9572;52.378;13.404;2023-04-22T05:02:35;16.67;;;8.13;;
18879;SDS011;9572;52.378;13.404;2023-04-22T05:05:02;12.53;;;7.43;;
18879;SDS011;9572;52.378;13.404;2023-04-22T05:07:32;12.20;;;7.53;;
18879;SDS011;9572;52.378;13.404;2023-04-22T05:09:59;10.10;;;7.10;;
18879;SDS011;9572;52.378;13.404;2023-04-22T05:12:26;13.70;;;7.83;;
18879;SDS011;9572;52.378;13.404;2023-04-22T05:14:57;12.90;;;7.30;;
18879;SDS011;9572;52.378;13.404;2023-04-22T05:17:26;12.20;;;7.13;;
18879;SDS011;9572;52.378;13.404;2023-04-22T05:19:54;13.83;;;7.57;;
18879;SDS011;9572;52.378;13.404;2023-04-22T05:22:31;13.53;;;7.57;;
18879;SDS011;9572;52.378;13.404;2023-04-22T05:24:59;10.83;;;7.13;;
18879;SDS011;9572;52.378;13.404;2023-04-22T05:27:26;11.70;;;6.80;;
18879;SDS011;9572;52.378;13.404;2023-04-22T05:29:54;17.43;;;7.30;;
18879;SDS011;9572;52.378;13.404;2023-04-22T05:32:21;9.13;;;6.73;;
18879;SDS011;9572;52.378;13.404;2023-04-22T05:34:48;11.90;;;7.27;;
18879;SDS011;9572;52.378;13.404;2023-04-22T05:37:15;11.50;;;7.23;;
18879;SDS011;9572;52.378;13.404;2023-04-22T05:39:43;13.43;;;7.27;;
18879;SDS011;9572;52.378;13.404;2023-04-22T05:42:10;13.50;;;7.80;;
18879;SDS011;9572;52.378;13.404;2023-04-22T05:44:37;11.90;;;8.10;;
18879;SDS011;9572;52.378;13.404;2023-04-22T05:47:04;13.33;;;7.67;;
18879;SDS011;9572;52.378;13.404;2023-04-22T05:49:31;12.67;;;7.77;;
18879;SDS011;9572;52.378;13.404;2023-04-22T05:51:58;14.40;;;7.70;;
18879;SDS011;9572;52.378;13.404;2023-04-22T05:54:24;10.50;;;7.03;;
18879;SDS011;9572;52.378;13.404;2023-04-22T05:56:53;9.37;;;6.60;;
18879;SDS011;9572;52.378;13.404;2023-04-22T05:59:20;11.37;;;7.37;;
18879;SDS011;9572;52.378;13.404;2023-04-22T06:01:47;10.87;;;7.50;;
18879;SDS011;9572;52.378;13.404;2023-04-22T06:04:15;15.33;;;7.47;;
18879;SDS011;9572;52.378;13.404;2023-04-22T06:06:41;11.10;;;7.37;;
18879;SDS011;9572;52.378;13.404;2023-04-22T06:09:09;13.73;;;6.93;;
18879;SDS011;9572;52.378;13.404;2023-04-22T06:11:35;14.67;;;7.90;;
18879;SDS011;9572;52.378;13.404;2023-04-22T06:14:04;12.10;;;7.60;;
18879;SDS011;9572;52.378;13.404;2023-04-22T06:16:31;12.50;;;7.57;;
18879;SDS011;9572;52.378;13.404;2023-04-22T06:18:59;13.53;;;7.73;;
18879;SDS011;9572;52.378;13.404;2023-04-22T06:21:25;13.63;;;7.27;;
18879;SDS011;9572;52.378;13.404;2023-04-22T06:23:56;10.60;;;7.53;;
18879;SDS011;9572;52.378;13.404;2023-04-22T06:26:26;18.40;;;7.63;;
18879;SDS011;9572;52.378;13.404;2023-04-22T06:28:53;13.50;;;7.28;;
18879;SDS011;9572;52.378;13.404;2023-04-22T06:31:21;14.68;;;8.18;;
18879;SDS011;9572;52.378;13.404;2023-04-22T06:33:48;10.40;;;6.90;;
18879;SDS011;9572;52.378;13.404;2023-04-22T06:36:15;9.43;;;7.40;;
18879;SDS011;9572;52.378;13.404;2023-04-22T06:38:42;10.95;;;7.68;;
18879;SDS011;9572;52.378;13.404;2023-04-22T06:41:09;16.77;;;8.55;;
18879;SDS011;9572;52.378;13.404;2023-04-22T06:43:36;11.88;;;7.45;;
18879;SDS011;9572;52.378;13.404;2023-04-22T06:46:02;13.45;;;7.70;;
18879;SDS011;9572;52.378;13.404;2023-04-22T06:48:31;13.00;;;7.35;;
18879;SDS011;9572;52.378;13.404;2023-04-22T06:50:58;10.80;;;6.75;;
18879;SDS011;9572;52.378;13.404;2023-04-22T06:53:26;12.00;;;7.18;;
18879;SDS011;9572;52.378;13.404;2023-04-22T06:55:53;11.50;;;7.03;;
18879;SDS011;9572;52.378;13.404;2023-04-22T06:58:19;12.30;;;7.47;;
18879;SDS011;9572;52.378;13.404;2023-04-22T07:00:46;14.35;;;7.68;;
18879;SDS011;9572;52.378;13.404;2023-04-22T07:03:13;15.80;;;7.60;;
18879;SDS011;9572;52.378;13.404;2023-04-22T07:05:41;11.63;;;7.63;;
18879;SDS011;9572;52.378;13.404;2023-04-22T07:08:08;11.38;;;7.40;;
18879;SDS011;9572;52.378;13.404;2023-04-22T07:10:35;14.18;;;7.38;;
18879;SDS011;9572;52.378;13.404;2023-04-22T07:13:02;12.60;;;7.20;;
18879;SDS011;9572;52.378;13.404;2023-04-22T07:15:29;15.77;;;7.50;;
18879;SDS011;9572;52.378;13.404;2023-04-22T07:17:56;11.73;;;7.38;;
18879;SDS011;9572;52.378;13.404;2023-04-22T07:20:23;13.35;;;7.63;;
18879;SDS011;9572;52.378;13.404;2023-04-22T07:22:51;9.77;;;6.95;;
18879;SDS011;9572;52.378;13.404;2023-04-22T07:25:18;13.82;;;7.50;;
18879;SDS011;9572;52.378;13.404;2023-04-22T07:27:45;11.57;;;7.07;;
18879;SDS011;9572;52.378;13.404;2023-04-22T07:30:12;13.35;;;7.28;;
18879;SDS011;9572;52.378;13.404;2023-04-22T07:32:39;10.60;;;6.90;;
18879;SDS011;9572;52.378;13.404;2023-04-22T07:35:06;8.93;;;6.55;;
18879;SDS011;9572;52.378;13.404;2023-04-22T07:37:33;11.73;;;6.63;;
18879;SDS011;9572;52.378;13.404;2023-04-22T07:40:02;10.05;;;6.20;;
18879;SDS011;9572;52.378;13.404;2023-04-22T07:42:29;9.75;;;6.88;;
18879;SDS011;9572;52.378;13.404;2023-04-22T07:44:56;11.93;;;7.05;;
18879;SDS011;9572;52.378;13.404;2023-04-22T07:47:23;8.52;;;6.43;;
18879;SDS011;9572;52.378;13.404;2023-04-22T07:49:50;10.80;;;6.65;;
18879;SDS011;9572;52.378;13.404;2023-04-22T07:52:17;13.20;;;7.35;;
18879;SDS011;9572;52.378;13.404;2023-04-22T07:54:45;12.45;;;7.03;;
18879;SDS011;9572;52.378;13.404;2023-04-22T07:57:13;8.60;;;6.32;;
18879;SDS011;9572;52.378;13.404;2023-04-22T07:59:40;12.25;;;6.72;;
18879;SDS011;9572;52.378;13.404;2023-04-22T08:02:07;7.88;;;6.47;;
18879;SDS011;9572;52.378;13.404;2023-04-22T08:04:33;10.98;;;6.82;;
18879;SDS011;9572;52.378;13.404;2023-04-22T08:07:01;8.82;;;6.80;;
18879;SDS011;9572;52.378;13.404;2023-04-22T08:09:28;14.18;;;6.80;;
18879;SDS011;9572;52.378;13.404;2023-04-22T08:11:54;10.45;;;7.28;;
18879;SDS011;9572;52.378;13.404;2023-04-22T08:14:23;12.10;;;6.97;;
18879;SDS011;9572;52.378;13.404;2023-04-22T08:16:50;11.77;;;6.97;;
18879;SDS011;9572;52.378;13.404;2023-04-22T08:19:17;8.73;;;6.50;;
18879;SDS011;9572;52.378;13.404;2023-04-22T08:21:44;8.45;;;6.78;;
18879;SDS011;9572;52.378;13.404;2023-04-22T08:24:12;14.45;;;7.90;;
18879;SDS011;9572;52.378;13.404;2023-04-22T08:26:39;8.98;;;6.63;;
18879;SDS011;9572;52.378;13.404;2023-04-22T08:29:07;14.80;;;6.70;;
18879;SDS011;9572;52.378;13.404;2023-04-22T08:31:35;10.65;;;6.38;;
18879;SDS011;9572;52.378;13.404;2023-04-22T08:34:02;8.80;;;6.30;;
18879;SDS011;9572;52.378;13.404;2023-04-22T08:36:29;10.95;;;6.85;;
18879;SDS011;9572;52.378;13.404;2023-04-22T08:38:56;11.35;;;6.32;;
18879;SDS011;9572;52.378;13.404;2023-04-22T08:41:23;9.82;;;6.35;;
18879;SDS011;9572;52.378;13.404;2023-04-22T08:43:51;12.32;;;6.20;;
18879;SDS011;9572;52.378;13.404;2023-04-22T08:46:18;8.45;;;5.82;;
18879;SDS011;9572;52.378;13.404;2023-04-22T08:48:47;12.65;;;6.75;;
18879;SDS011;9572;52.378;13.404;2023-04-22T08:51:15;12.25;;;8.25;;
18879;SDS011;9572;52.378;13.404;2023-04-22T08:53:43;9.65;;;5.95;;
18879;SDS011;9572;52.378;13.404;2023-04-22T08:56:10;13.02;;;6.35;;
18879;SDS011;9572;52.378;13.404;2023-04-22T08:58:38;8.30;;;6.25;;
18879;SDS011;9572;52.378;13.404;2023-04-22T09:01:06;11.88;;;5.75;;
18879;SDS011;9572;52.378;13.404;2023-04-22T09:03:34;9.27;;;5.78;;
18879;SDS011;9572;52.378;13.404;2023-04-22T09:06:03;10.32;;;5.55;;
18879;SDS011;9572;52.378;13.404;2023-04-22T09:08:31;8.75;;;5.38;;
18879;SDS011;9572;52.378;13.404;2023-04-22T09:10:58;13.25;;;6.25;;
18879;SDS011;9572;52.378;13.404;2023-04-22T09:13:25;12.95;;;5.45;;
18879;SDS011;9572;52.378;13.404;2023-04-22T09:15:52;9.00;;;5.20;;
18879;SDS011;9572;52.378;13.404;2023-04-22T09:18:19;11.65;;;5.20;;
18879;SDS011;9572;52.378;13.404;2023-04-22T09:20:46;12.38;;;5.55;;
18879;SDS011;9572;52.378;13.404;2023-04-22T09:23:15;9.90;;;5.43;;
18879;SDS011;9572;52.378;13.404;2023-04-22T09:25:43;13.85;;;5.43;;
18879;SDS011;9572;52.378;13.404;2023-04-22T09:28:11;8.40;;;5.35;;
18879;SDS011;9572;52.378;13.404;2023-04-22T09:30:43;9.10;;;5.97;;
18879;SDS011;9572;52.378;13.404;2023-04-22T09:33:11;9.45;;;5.78;;
18879;SDS011;9572;52.378;13.404;2023-04-22T09:35:39;13.63;;;5.50;;
18879;SDS011;9572;52.378;13.404;2023-04-22T09:38:07;7.68;;;5.57;;
18879;SDS011;9572;52.378;13.404;2023-04-22T09:40:36;11.55;;;5.20;;
18879;SDS011;9572;52.378;13.404;2023-04-22T09:43:09;8.63;;;4.80;;
18879;SDS011;9572;52.378;13.404;2023-04-22T09:45:37;14.65;;;4.80;;
18879;SDS011;9572;52.378;13.404;2023-04-22T09:48:05;8.23;;;5.15;;
18879;SDS011;9572;52.378;13.404;2023-04-22T09:50:34;11.48;;;5.00;;
18879;SDS011;9572;52.378;13.404;2023-04-22T09:53:04;7.05;;;5.15;;
18879;SDS011;9572;52.378;13.404;2023-04-22T09:55:32;10.05;;;5.43;;
18879;SDS011;9572;52.378;13.404;2023-04-22T09:58:05;9.35;;;5.18;;
18879;SDS011;9572;52.378;13.404;2023-04-22T10:00:34;9.60;;;5.03;;
18879;SDS011;9572;52.378;13.404;2023-04-22T10:03:05;7.30;;;4.63;;
18879;SDS011;9572;52.378;13.404;2023-04-22T10:05:32;8.38;;;4.85;;
18879;SDS011;9572;52.378;13.404;2023-04-22T10:08:01;11.23;;;5.18;;
18879;SDS011;9572;52.378;13.404;2023-04-22T10:10:29;10.23;;;4.80;;
18879;SDS011;9572;52.378;13.404;2023-04-22T10:12:56;8.25;;;5.63;;
18879;SDS011;9572;52.378;13.404;2023-04-22T10:15:25;13.13;;;5.30;;
18879;SDS011;9572;52.378;13.404;2023-04-22T10:17:56;7.97;;;5.20;;
18879;SDS011;9572;52.378;13.404;2023-04-22T10:20:24;11.50;;;5.07;;
18879;SDS011;9572;52.378;13.404;2023-04-22T10:22:53;10.25;;;5.00;;
18879;SDS011;9572;52.378;13.404;2023-04-22T10:25:22;11.52;;;5.25;;
18879;SDS011;9572;52.378;13.404;2023-04-22T10:27:53;7.68;;;4.88;;
18879;SDS011;9572;52.378;13.404;2023-04-22T10:30:28;11.68;;;5.28;;
18879;SDS011;9572;52.378;13.404;2023-04-22T10:32:58;7.75;;;4.55;;
18879;SDS011;9572;52.378;13.404;2023-04-22T10:36:04;6.97;;;4.55;;
18879;SDS011;9572;52.378;13.404;2023-04-22T10:38:33;9.00;;;5.13;;
18879;SDS011;9572;52.378;13.404;2023-04-22T10:41:00;11.77;;;4.80;;
18879;SDS011;9572;52.378;13.404;2023-04-22T10:43:39;7.20;;;4.75;;
18879;SDS011;9572;52.378;13.404;2023-04-22T10:46:08;10.55;;;4.70;;
18879;SDS011;9572;52.378;13.404;2023-04-22T10:49:16;10.48;;;5.30;;
18879;SDS011;9572;52.378;13.404;2023-04-22T10:51:46;7.20;;;4.65;;
18879;SDS011;9572;52.378;13.404;2023-04-22T10:57:18;8.32;;;4.70;;
18879;SDS011;9572;52.378;13.404;2023-04-22T10:59:47;7.72;;;4.72;;
18879;SDS011;9572;52.378;13.404;2023-04-22T11:02:16;9.13;;;4.40;;
18879;SDS011;9572;52.378;13.404;2023-04-22T11:04:43;7.85;;;4.70;;
18879;SDS011;9572;52.378;13.404;2023-04-22T11:07:14;10.93;;;7.70;;
18879;SDS011;9572;52.378;13.404;2023-04-22T11:09:58;8.45;;;4.80;;
18879;SDS011;9572;52.378;13.404;2023-04-22T11:12:42;7.43;;;4.93;;
18879;SDS011;9572;52.378;13.404;2023-04-22T11:15:11;7.22;;;4.60;;
18879;SDS011;9572;52.378;13.404;2023-04-22T11:17:41;9.65;;;4.93;;
18879;SDS011;9572;52.378;13.404;2023-04-22T11:20:09;5.75;;;3.72;;
18879;SDS011;9572;52.378;13.404;2023-04-22T11:22:38;10.00;;;4.78;;
18879;SDS011;9572;52.378;13.404;2023-04-22T11:25:07;8.43;;;4.60;;
18879;SDS011;9572;52.378;13.404;2023-04-22T11:27:34;5.63;;;4.60;;
18879;SDS011;9572;52.378;13.404;2023-04-22T11:30:02;6.15;;;4.38;;
18879;SDS011;9572;52.378;13.404;2023-04-22T11:32:31;9.02;;;4.40;;
18879;SDS011;9572;52.378;13.404;2023-04-22T11:35:01;8.50;;;4.20;;
18879;SDS011;9572;52.378;13.404;2023-04-22T11:37:29;7.25;;;4.63;;
18879;SDS011;9572;52.378;13.404;2023-04-22T11:39:58;6.15;;;4.13;;
18879;SDS011;9572;52.378;13.404;2023-04-22T11:42:25;7.22;;;4.40;;
18879;SDS011;9572;52.378;13.404;2023-04-22T11:44:52;7.68;;;4.35;;
18879;SDS011;9572;52.378;13.404;2023-04-22T11:47:19;7.18;;;4.68;;
18879;SDS011;9572;52.378;13.404;2023-04-22T11:49:56;8.05;;;4.32;;
18879;SDS011;9572;52.378;13.404;2023-04-22T11:52:40;5.95;;;4.07;;
18879;SDS011;9572;52.378;13.404;2023-04-22T11:55:09;8.65;;;4.28;;
18879;SDS011;9572;52.378;13.404;2023-04-22T11:57:36;6.78;;;4.35;;
18879;SDS011;9572;52.378;13.404;2023-04-22T12:00:04;6.75;;;4.13;;
18879;SDS011;9572;52.378;13.404;2023-04-22T12:02:32;6.95;;;4.03;;
18879;SDS011;9572;52.378;13.404;2023-04-22T12:04:58;7.10;;;4.10;;
18879;SDS011;9572;52.378;13.404;2023-04-22T12:07:27;5.82;;;3.92;;
18879;SDS011;9572;52.378;13.404;2023-04-22T12:09:58;5.22;;;3.75;;
18879;SDS011;9572;52.378;13.404;2023-04-22T12:12:27;8.50;;;4.05;;
18879;SDS011;9572;52.378;13.404;2023-04-22T12:14:54;6.45;;;3.78;;
18879;SDS011;9572;52.378;13.404;2023-04-22T12:17:22;7.30;;;4.28;;
18879;SDS011;9572;52.378;13.404;2023-04-22T12:19:53;8.95;;;3.90;;
18879;SDS011;9572;52.378;13.404;2023-04-22T12:22:23;8.88;;;4.65;;
18879;SDS011;9572;52.378;13.404;2023-04-22T12:24:51;8.32;;;4.35;;
18879;SDS011;9572;52.378;13.404;2023-04-22T12:27:19;6.97;;;4.13;;
18879;SDS011;9572;52.378;13.404;2023-04-22T12:29:49;5.70;;;3.95;;
18879;SDS011;9572;52.378;13.404;2023-04-22T12:32:18;5.93;;;3.63;;
18879;SDS011;9572;52.378;13.404;2023-04-22T12:34:45;5.43;;;4.35;;
18879;SDS011;9572;52.378;13.404;2023-04-22T12:37:12;5.35;;;3.55;;
18879;SDS011;9572;52.378;13.404;2023-04-22T12:39:40;9.55;;;4.30;;
18879;SDS011;9572;52.378;13.404;2023-04-22T12:42:07;5.82;;;4.20;;
18879;SDS011;9572;52.378;13.404;2023-04-22T12:44:36;8.75;;;4.43;;
18879;SDS011;9572;52.378;13.404;2023-04-22T12:47:03;5.10;;;4.18;;
18879;SDS011;9572;52.378;13.404;2023-04-22T12:49:29;5.38;;;4.40;;
18879;SDS011;9572;52.378;13.404;2023-04-22T12:51:56;7.40;;;4.35;;
18879;SDS011;9572;52.378;13.404;2023-04-22T12:54:23;6.53;;;4.28;;
18879;SDS011;9572;52.378;13.404;2023-04-22T12:56:50;4.82;;;3.97;;
18879;SDS011;9572;52.378;13.404;2023-04-22T12:59:18;5.63;;;4.68;;
18879;SDS011;9572;52.378;13.404;2023-04-22T13:01:46;9.07;;;4.63;;
18879;SDS011;9572;52.378;13.404;2023-04-22T13:04:13;6.93;;;4.65;;
18879;SDS011;9572;52.378;13.404;2023-04-22T13:06:40;7.40;;;4.43;;
18879;SDS011;9572;52.378;13.404;2023-04-22T13:09:07;9.40;;;4.68;;
18879;SDS011;9572;52.378;13.404;2023-04-22T13:11:33;7.82;;;4.80;;
18879;SDS011;9572;52.378;13.404;2023-04-22T13:14:02;6.50;;;4.85;;
18879;SDS011;9572;52.378;13.404;2023-04-22T13:16:28;8.13;;;5.32;;
18879;SDS011;9572;52.378;13.404;2023-04-22T13:18:57;7.07;;;4.85;;
18879;SDS011;9572;52.378;13.404;2023-04-22T13:21:24;8.05;;;4.65;;
18879;SDS011;9572;52.378;13.404;2023-04-22T13:23:51;8.48;;;5.00;;
18879;SDS011;9572;52.378;13.404;2023-04-22T13:26:18;28.83;;;20.15;;
18879;SDS011;9572;52.378;13.404;2023-04-22T13:28:45;5.85;;;4.90;;
18879;SDS011;9572;52.378;13.404;2023-04-22T13:31:12;7.75;;;4.70;;
18879;SDS011;9572;52.378;13.404;2023-04-22T13:33:39;6.47;;;4.40;;
18879;SDS011;9572;52.378;13.404;2023-04-22T13:36:07;7.32;;;4.15;;
18879;SDS011;9572;52.378;13.404;2023-04-22T13:38:34;8.85;;;4.57;;
18879;SDS011;9572;52.378;13.404;2023-04-22T13:41:01;4.45;;;4.05;;
18879;SDS011;9572;52.378;13.404;2023-04-22T13:43:28;4.50;;;4.00;;
18879;SDS011;9572;52.378;13.404;2023-04-22T13:45:55;7.47;;;4.15;;
18879;SDS011;9572;52.378;13.404;2023-04-22T13:48:22;7.13;;;4.40;;
18879;SDS011;9572;52.378;13.404;2023-04-22T13:50:49;6.80;;;4.30;;
18879;SDS011;9572;52.378;13.404;2023-04-22T13:53:17;6.28;;;3.88;;
18879;SDS011;9572;52.378;13.404;2023-04-22T13:55:44;6.82;;;4.25;;
18879;SDS011;9572;52.378;13.404;2023-04-22T13:58:11;5.10;;;4.22;;
18879;SDS011;9572;52.378;13.404;2023-04-22T14:00:38;8.73;;;4.55;;
18879;SDS011;9572;52.378;13.404;2023-04-22T14:03:05;11.65;;;4.53;;
18879;SDS011;9572;52.378;13.404;2023-04-22T14:05:32;6.72;;;4.28;;
18879;SDS011;9572;52.378;13.404;2023-04-22T14:07:59;9.40;;;4.65;;
18879;SDS011;9572;52.378;13.404;2023-04-22T14:10:28;8.65;;;3.95;;
18879;SDS011;9572;52.378;13.404;2023-04-22T14:12:54;5.10;;;4.45;;
18879;SDS011;9572;52.378;13.404;2023-04-22T14:15:21;7.05;;;4.18;;
18879;SDS011;9572;52.378;13.404;2023-04-22T14:17:49;5.60;;;4.03;;
18879;SDS011;9572;52.378;13.404;2023-04-22T14:20:16;5.78;;;4.13;;
18879;SDS011;9572;52.378;13.404;2023-04-22T14:22:43;7.03;;;3.83;;
18879;SDS011;9572;52.378;13.404;2023-04-22T14:25:10;5.03;;;3.97;;
18879;SDS011;9572;52.378;13.404;2023-04-22T14:27:38;10.00;;;4.55;;
18879;SDS011;9572;52.378;13.404;2023-04-22T14:30:05;6.38;;;4.15;;
18879;SDS011;9572;52.378;13.404;2023-04-22T14:32:33;6.57;;;4.03;;
18879;SDS011;9572;52.378;13.404;2023-04-22T14:35:00;10.02;;;4.22;;
18879;SDS011;9572;52.378;13.404;2023-04-22T14:37:27;5.82;;;4.40;;
18879;SDS011;9572;52.378;13.404;2023-04-22T14:39:55;6.78;;;4.40;;
18879;SDS011;9572;52.378;13.404;2023-04-22T14:42:22;9.02;;;3.90;;
18879;SDS011;9572;52.378;13.404;2023-04-22T14:44:51;7.80;;;4.68;;
18879;SDS011;9572;52.378;13.404;2023-04-22T14:47:18;7.18;;;4.10;;